createdAt,value
2023-05-06T00:00:22.728Z,15.81
2023-05-06T00:02:49.815Z,15.79
2023-05-06T00:05:18.873Z,15.78
2023-05-06T00:07:49.199Z,15.75
2023-05-06T00:10:16.623Z,15.73
2023-05-06T00:12:43.605Z,15.71
2023-05-06T00:15:11.205Z,15.72
2023-05-06T00:17:38.405Z,15.72
2023-05-06T00:20:06.503Z,15.69
2023-05-06T00:22:33.525Z,15.69
2023-05-06T00:25:00.545Z,15.70
2023-05-06T00:27:27.686Z,15.66
2023-05-06T00:29:54.679Z,15.68
2023-05-06T00:32:21.679Z,15.67
2023-05-06T00:34:48.669Z,15.65
2023-05-06T00:37:15.934Z,15.63
2023-05-06T00:39:42.939Z,15.61
2023-05-06T00:42:09.894Z,15.63
2023-05-06T00:44:36.858Z,15.61
2023-05-06T00:47:04.701Z,15.60
2023-05-06T00:49:32.192Z,15.58
2023-05-06T00:51:59.731Z,15.57
2023-05-06T00:54:27.240Z,15.55
2023-05-06T00:56:54.487Z,15.56
2023-05-06T00:59:22.925Z,15.52
2023-05-06T01:01:49.888Z,15.54
2023-05-06T01:04:17.111Z,15.51
2023-05-06T01:07:13.544Z,15.52
2023-05-06T01:09:48.266Z,15.52
2023-05-06T01:12:29.738Z,15.50
2023-05-06T01:15:09.062Z,15.51
2023-05-06T01:17:42.993Z,15.48
2023-05-06T01:20:15.703Z,15.50
2023-05-06T01:22:42.735Z,15.48
2023-05-06T01:25:19.789Z,15.46
2023-05-06T01:27:46.908Z,15.46
2023-05-06T01:30:16.695Z,15.46
2023-05-06T01:32:53.463Z,15.45
2023-05-06T01:35:23.311Z,15.45
2023-05-06T01:38:02.737Z,15.45
2023-05-06T01:40:31.588Z,15.46
2023-05-06T01:43:00.705Z,15.43
2023-05-06T01:45:31.753Z,15.42
2023-05-06T01:47:59.761Z,15.42
2023-05-06T01:50:27.802Z,15.40
2023-05-06T01:52:59.483Z,15.41
2023-05-06T01:55:26.752Z,15.41
2023-05-06T01:57:54.907Z,15.40
2023-05-06T02:00:22.048Z,15.39
2023-05-06T02:02:49.129Z,15.39
2023-05-06T02:05:19.179Z,15.40
2023-05-06T02:07:46.112Z,15.40
2023-05-06T02:10:13.071Z,15.42
2023-05-06T02:12:40.098Z,15.43
2023-05-06T02:15:08.000Z,15.45
2023-05-06T02:17:36.418Z,15.45
2023-05-06T02:20:04.052Z,15.42
2023-05-06T02:22:31.113Z,15.43
2023-05-06T02:24:58.084Z,15.44
2023-05-06T02:27:25.076Z,15.43
2023-05-06T02:29:52.017Z,15.45
2023-05-06T02:32:19.121Z,15.44
2023-05-06T02:34:46.236Z,15.42
2023-05-06T02:37:13.192Z,15.44
2023-05-06T02:39:40.181Z,15.46
2023-05-06T02:42:07.220Z,15.44
2023-05-06T02:44:34.275Z,15.43
2023-05-06T02:47:01.226Z,15.46
2023-05-06T02:49:28.206Z,15.46
2023-05-06T02:51:55.156Z,15.45
2023-05-06T02:54:22.126Z,15.45
2023-05-06T02:56:48.993Z,15.46
2023-05-06T02:59:16.784Z,15.47
2023-05-06T03:01:43.740Z,15.49
2023-05-06T03:04:10.713Z,15.48
2023-05-06T03:06:37.697Z,15.49
2023-05-06T03:09:05.466Z,15.50
2023-05-06T03:11:33.200Z,15.49
2023-05-06T03:14:00.153Z,15.51
2023-05-06T03:16:27.187Z,15.52
2023-05-06T03:18:54.116Z,15.52
2023-05-06T03:21:21.098Z,15.54
2023-05-06T03:23:48.013Z,15.54
2023-05-06T03:26:14.950Z,15.54
2023-05-06T03:28:44.244Z,15.54
2023-05-06T03:31:11.401Z,15.54
2023-05-06T03:33:38.516Z,15.57
2023-05-06T03:36:06.033Z,15.58
2023-05-06T03:38:33.144Z,15.56
2023-05-06T03:41:00.230Z,15.58
2023-05-06T03:43:27.177Z,15.57
2023-05-06T03:45:54.225Z,15.56
2023-05-06T03:48:21.254Z,15.56
2023-05-06T03:50:48.357Z,15.56
2023-05-06T03:53:15.623Z,15.54
2023-05-06T03:55:42.526Z,15.55
2023-05-06T03:58:09.506Z,15.54
2023-05-06T04:00:36.396Z,15.55
2023-05-06T04:03:03.519Z,15.54
2023-05-06T04:05:30.587Z,15.58
2023-05-06T04:07:57.582Z,15.59
2023-05-06T04:10:24.610Z,15.61
2023-05-06T04:12:52.783Z,15.60
2023-05-06T04:15:19.872Z,15.60
2023-05-06T04:17:46.841Z,15.61
2023-05-06T04:20:14.730Z,15.59
2023-05-06T04:22:41.729Z,15.61
2023-05-06T04:25:09.363Z,15.63
2023-05-06T04:27:36.704Z,15.62
2023-05-06T04:30:03.817Z,15.64
2023-05-06T04:32:30.766Z,15.64
2023-05-06T04:34:57.914Z,15.64
2023-05-06T04:37:24.943Z,15.60
2023-05-06T04:39:51.922Z,15.61
2023-05-06T04:42:18.870Z,15.66
2023-05-06T04:44:46.156Z,15.69
2023-05-06T04:47:13.226Z,15.69
2023-05-06T04:49:40.186Z,15.68
2023-05-06T04:52:07.255Z,15.72
2023-05-06T04:54:34.391Z,15.73
2023-05-06T04:57:01.421Z,15.72
2023-05-06T04:59:28.515Z,15.70
2023-05-06T05:01:55.518Z,15.55
2023-05-06T05:04:22.507Z,15.57
2023-05-06T05:06:49.570Z,15.66
2023-05-06T05:09:16.632Z,15.69
2023-05-06T05:11:43.695Z,15.71
2023-05-06T05:14:10.664Z,15.72
2023-05-06T05:16:37.839Z,15.75
2023-05-06T05:19:06.250Z,15.75
2023-05-06T05:21:34.496Z,15.78
2023-05-06T05:24:01.493Z,15.80
2023-05-06T05:26:28.430Z,15.80
2023-05-06T05:28:55.360Z,15.82
2023-05-06T05:31:22.389Z,15.84
2023-05-06T05:33:50.454Z,15.84
2023-05-06T05:36:17.601Z,15.85
2023-05-06T05:38:44.609Z,15.85
2023-05-06T05:41:11.609Z,15.62
2023-05-06T05:43:38.557Z,15.58
2023-05-06T05:46:05.561Z,15.66
2023-05-06T05:48:33.166Z,15.70
2023-05-06T05:51:02.465Z,15.74
2023-05-06T05:53:29.656Z,15.78
2023-05-06T05:55:56.656Z,15.80
2023-05-06T05:58:23.704Z,15.81
2023-05-06T06:00:50.609Z,15.82
2023-05-06T06:03:19.170Z,15.81
2023-05-06T06:05:46.333Z,15.84
2023-05-06T06:08:13.503Z,15.84
2023-05-06T06:10:40.550Z,15.84
2023-05-06T06:13:07.560Z,15.86
2023-05-06T06:15:34.833Z,15.87
2023-05-06T06:18:02.529Z,15.89
2023-05-06T06:20:29.571Z,15.90
2023-05-06T06:22:56.572Z,15.90
2023-05-06T06:25:23.638Z,15.91
2023-05-06T06:27:50.810Z,15.91
2023-05-06T06:30:18.109Z,15.92
2023-05-06T06:32:50.100Z,15.93
2023-05-06T06:35:17.427Z,15.95
2023-05-06T06:37:44.387Z,15.93
2023-05-06T06:40:12.145Z,15.95
2023-05-06T06:42:39.168Z,15.95
2023-05-06T06:45:11.440Z,15.97
2023-05-06T06:47:38.632Z,15.97
2023-05-06T06:50:07.192Z,15.98
2023-05-06T06:52:34.829Z,15.98
2023-05-06T06:55:02.327Z,16.01
2023-05-06T06:57:29.353Z,16.00
2023-05-06T06:59:56.402Z,16.02
2023-05-06T07:02:23.573Z,16.01
2023-05-06T07:04:50.706Z,16.01
2023-05-06T07:07:17.663Z,16.01
2023-05-06T07:09:44.691Z,16.04
2023-05-06T07:12:11.810Z,16.06
2023-05-06T07:14:39.214Z,16.10
2023-05-06T07:17:06.591Z,16.13
2023-05-06T07:19:33.784Z,16.14
2023-05-06T07:22:02.965Z,16.19
2023-05-06T07:24:30.350Z,16.22
2023-05-06T07:26:58.107Z,16.28
2023-05-06T07:29:25.203Z,16.33
2023-05-06T07:31:52.245Z,16.37
2023-05-06T07:34:21.163Z,16.41
2023-05-06T07:36:48.645Z,16.45
2023-05-06T07:39:15.771Z,16.47
2023-05-06T07:41:43.114Z,16.50
2023-05-06T07:44:10.524Z,16.53
2023-05-06T07:46:41.213Z,16.49
2023-05-06T07:49:09.099Z,16.56
2023-05-06T07:51:36.459Z,16.60
2023-05-06T07:54:03.579Z,16.56
2023-05-06T07:56:30.876Z,16.60
2023-05-06T07:58:59.632Z,16.60
2023-05-06T08:01:27.811Z,16.61
2023-05-06T08:03:55.244Z,16.60
2023-05-06T08:06:22.456Z,16.60
2023-05-06T08:08:49.611Z,16.60
2023-05-06T08:11:19.532Z,16.61
2023-05-06T08:13:47.519Z,16.58
2023-05-06T08:16:14.810Z,16.55
2023-05-06T08:18:42.013Z,16.56
2023-05-06T08:21:09.525Z,16.54
2023-05-06T08:23:36.531Z,16.58
2023-05-06T08:26:03.883Z,16.59
2023-05-06T08:28:31.914Z,16.55
2023-05-06T08:30:59.136Z,16.55
2023-05-06T08:33:26.303Z,16.41
2023-05-06T08:35:55.158Z,16.48
2023-05-06T08:38:22.224Z,16.50
2023-05-06T08:40:49.520Z,16.54
2023-05-06T08:43:21.037Z,16.52
2023-05-06T08:45:49.841Z,16.51
2023-05-06T08:48:17.674Z,16.52
2023-05-06T08:50:44.893Z,16.51
2023-05-06T08:53:15.537Z,16.52
2023-05-06T08:55:44.051Z,16.57
2023-05-06T08:58:13.775Z,16.59
2023-05-06T09:00:41.280Z,16.59
2023-05-06T09:03:08.834Z,16.56
2023-05-06T09:05:36.348Z,16.57
2023-05-06T09:08:04.091Z,16.59
2023-05-06T09:10:48.022Z,16.59
2023-05-06T09:13:18.129Z,16.59
2023-05-06T09:15:52.833Z,16.58
2023-05-06T09:18:20.510Z,16.62
2023-05-06T09:20:49.992Z,16.62
2023-05-06T09:23:18.968Z,16.67
2023-05-06T09:25:47.966Z,16.70
2023-05-06T09:28:15.886Z,16.72
2023-05-06T09:30:45.507Z,16.72
2023-05-06T09:33:12.808Z,16.72
2023-05-06T09:35:42.414Z,16.71
2023-05-06T09:38:10.615Z,16.74
2023-05-06T09:40:39.080Z,16.75
2023-05-06T09:43:07.177Z,16.75
2023-05-06T09:45:34.556Z,16.76
2023-05-06T09:48:01.743Z,16.77
2023-05-06T09:50:29.186Z,16.75
2023-05-06T09:52:56.846Z,16.79
2023-05-06T09:55:27.119Z,16.80
2023-05-06T09:57:56.011Z,16.85
2023-05-06T10:00:28.700Z,16.91
2023-05-06T10:02:56.509Z,16.93
2023-05-06T10:05:26.889Z,16.96
2023-05-06T10:07:56.885Z,17.04
2023-05-06T10:10:26.243Z,17.09
2023-05-06T10:12:54.505Z,17.12
2023-05-06T10:15:22.424Z,17.17
2023-05-06T10:17:53.047Z,17.21
2023-05-06T10:20:24.807Z,17.26
2023-05-06T10:23:01.076Z,17.27
2023-05-06T10:25:37.652Z,17.25
2023-05-06T10:28:10.679Z,17.27
2023-05-06T10:30:43.963Z,17.34
2023-05-06T10:33:12.569Z,17.40
2023-05-06T10:35:42.909Z,17.50
2023-05-06T10:38:15.452Z,17.62
2023-05-06T10:40:44.128Z,17.71
2023-05-06T10:43:34.844Z,17.79
2023-05-06T10:46:14.067Z,17.79
2023-05-06T10:49:07.194Z,17.93
2023-05-06T10:51:35.310Z,18.00
2023-05-06T10:54:07.446Z,17.98
2023-05-06T10:56:38.726Z,18.04
2023-05-06T10:59:11.114Z,18.09
2023-05-06T11:01:40.374Z,18.16
2023-05-06T11:04:11.745Z,18.19
2023-05-06T11:06:53.749Z,18.32
2023-05-06T11:09:25.167Z,18.37
2023-05-06T11:12:05.184Z,18.42
2023-05-06T11:14:37.579Z,18.50
2023-05-06T11:17:05.926Z,18.54
2023-05-06T11:19:35.334Z,18.60
2023-05-06T11:22:04.441Z,18.52
2023-05-06T11:24:39.309Z,18.49
2023-05-06T11:27:07.455Z,18.49
2023-05-06T11:29:34.986Z,18.59
2023-05-06T11:32:03.245Z,18.50
2023-05-06T11:34:32.314Z,18.41
2023-05-06T11:37:03.786Z,18.41
2023-05-06T11:39:39.665Z,18.44
2023-05-06T11:42:09.285Z,18.47
2023-05-06T11:44:38.667Z,18.50
2023-05-06T11:47:09.497Z,18.51
2023-05-06T11:49:42.970Z,18.51
2023-05-06T11:52:11.866Z,18.64
2023-05-06T11:54:41.248Z,18.70
2023-05-06T11:57:10.083Z,18.69
2023-05-06T11:59:41.891Z,18.70
2023-05-06T12:02:11.431Z,18.57
2023-05-06T12:04:47.286Z,18.57
2023-05-06T12:07:16.399Z,18.58
2023-05-06T12:09:49.407Z,18.59
2023-05-06T12:12:22.971Z,18.67
2023-05-06T12:14:52.376Z,18.67
2023-05-06T12:17:19.834Z,18.68
2023-05-06T12:19:47.683Z,18.70
2023-05-06T12:22:25.048Z,18.70
2023-05-06T12:24:54.201Z,18.69
2023-05-06T12:27:32.497Z,18.67
2023-05-06T12:30:01.008Z,18.68
2023-05-06T12:32:28.350Z,18.69
2023-05-06T12:34:56.483Z,18.64
2023-05-06T12:37:31.089Z,18.66
2023-05-06T12:39:59.420Z,18.64
2023-05-06T12:42:27.327Z,18.63
2023-05-06T12:44:55.284Z,18.61
2023-05-06T12:47:24.947Z,18.60
2023-05-06T12:49:59.011Z,18.56
2023-05-06T12:52:29.383Z,18.54
2023-05-06T12:54:57.232Z,18.51
2023-05-06T12:57:25.316Z,18.51
2023-05-06T12:59:54.164Z,18.51
2023-05-06T13:02:22.647Z,18.45
2023-05-06T13:04:50.460Z,18.38
2023-05-06T13:07:17.772Z,18.36
2023-05-06T13:09:45.523Z,18.33
2023-05-06T13:12:13.615Z,18.30
2023-05-06T13:14:41.434Z,18.26
2023-05-06T13:17:09.106Z,18.29
2023-05-06T13:19:36.784Z,18.25
2023-05-06T13:22:04.373Z,18.18
2023-05-06T13:24:32.734Z,18.18
2023-05-06T13:27:01.628Z,18.18
2023-05-06T13:29:30.022Z,18.15
2023-05-06T13:31:57.165Z,18.15
2023-05-06T13:34:24.574Z,18.12
2023-05-06T13:36:52.446Z,18.09
2023-05-06T13:39:20.587Z,18.10
2023-05-06T13:41:48.657Z,18.08
2023-05-06T13:44:16.332Z,18.07
2023-05-06T13:46:46.226Z,18.09
2023-05-06T13:49:15.420Z,18.16
2023-05-06T13:51:42.624Z,18.05
2023-05-06T13:54:10.142Z,18.01
2023-05-06T13:56:37.285Z,18.10
2023-05-06T13:59:04.785Z,18.10
2023-05-06T14:01:31.925Z,18.11
2023-05-06T14:03:59.192Z,18.13
2023-05-06T14:06:28.069Z,18.16
2023-05-06T14:08:55.194Z,18.17
2023-05-06T14:11:22.914Z,18.10
2023-05-06T14:13:49.893Z,18.06
2023-05-06T14:16:20.086Z,18.04
2023-05-06T14:18:47.315Z,18.04
2023-05-06T14:21:14.553Z,18.15
2023-05-06T14:23:41.567Z,18.16
2023-05-06T14:26:08.757Z,18.11
2023-05-06T14:28:36.035Z,18.11
2023-05-06T14:31:03.064Z,18.08
2023-05-06T14:33:30.342Z,18.06
2023-05-06T14:35:58.915Z,18.04
2023-05-06T14:38:26.090Z,18.01
2023-05-06T14:40:53.132Z,18.01
2023-05-06T14:43:20.154Z,18.06
2023-05-06T14:45:47.667Z,18.04
2023-05-06T14:48:14.934Z,18.06
2023-05-06T14:50:42.286Z,17.80
2023-05-06T14:53:09.660Z,17.82
2023-05-06T14:55:36.707Z,17.78
2023-05-06T14:58:04.225Z,17.79
2023-05-06T15:00:31.535Z,17.91
2023-05-06T15:02:59.782Z,17.95
2023-05-06T15:05:28.531Z,17.98
2023-05-06T15:07:55.638Z,18.03
2023-05-06T15:10:22.864Z,18.03
2023-05-06T15:12:49.920Z,18.04
2023-05-06T15:15:17.056Z,18.08
2023-05-06T15:17:44.353Z,18.13
2023-05-06T15:20:12.086Z,18.20
2023-05-06T15:22:39.649Z,18.29
2023-05-06T15:25:09.275Z,18.34
2023-05-06T15:27:38.015Z,18.39
2023-05-06T15:30:05.752Z,18.39
2023-05-06T15:32:32.926Z,18.46
2023-05-06T15:35:00.176Z,18.49
2023-05-06T15:37:27.192Z,18.53
2023-05-06T15:39:54.193Z,18.57
2023-05-06T15:42:21.894Z,18.58
2023-05-06T15:44:52.142Z,18.60
2023-05-06T15:47:20.537Z,18.64
2023-05-06T15:49:54.408Z,18.71
2023-05-06T15:52:23.024Z,18.73
2023-05-06T15:54:50.572Z,18.78
2023-05-06T15:57:18.499Z,18.77
2023-05-06T15:59:45.902Z,18.82
2023-05-06T16:02:26.781Z,18.84
2023-05-06T16:04:55.401Z,18.88
2023-05-06T16:07:23.397Z,18.88
2023-05-06T16:09:51.092Z,18.92
2023-05-06T16:12:19.175Z,18.93
2023-05-06T16:14:47.471Z,18.97
2023-05-06T16:17:16.346Z,19.05
2023-05-06T16:19:43.879Z,19.02
2023-05-06T16:22:11.071Z,19.04
2023-05-06T16:24:38.686Z,19.03
2023-05-06T16:27:07.122Z,19.01
2023-05-06T16:29:34.356Z,19.06
2023-05-06T16:32:01.809Z,19.04
2023-05-06T16:34:29.267Z,19.03
2023-05-06T16:36:58.710Z,19.09
2023-05-06T16:39:25.985Z,19.13
2023-05-06T16:41:53.546Z,19.18
2023-05-06T16:44:23.285Z,19.20
2023-05-06T16:46:52.303Z,19.19
2023-05-06T16:49:21.612Z,19.25
2023-05-06T16:51:49.095Z,19.24
2023-05-06T16:54:17.682Z,19.28
2023-05-06T16:56:52.213Z,19.31
2023-05-06T16:59:22.143Z,19.34
2023-05-06T17:01:50.147Z,19.35
2023-05-06T17:04:17.455Z,19.35
2023-05-06T17:06:44.780Z,19.33
2023-05-06T17:09:12.574Z,19.31
2023-05-06T17:11:40.138Z,19.29
2023-05-06T17:14:07.602Z,19.25
2023-05-06T17:16:34.816Z,19.25
2023-05-06T17:19:02.004Z,19.24
2023-05-06T17:21:29.592Z,19.23
2023-05-06T17:23:56.702Z,19.21
2023-05-06T17:26:23.866Z,19.16
2023-05-06T17:28:51.489Z,19.14
2023-05-06T17:31:18.979Z,19.14
2023-05-06T17:33:46.881Z,19.16
2023-05-06T17:36:14.446Z,19.16
2023-05-06T17:38:41.694Z,19.12
2023-05-06T17:41:09.145Z,19.17
2023-05-06T17:43:36.376Z,19.13
2023-05-06T17:46:03.623Z,19.06
2023-05-06T17:48:31.220Z,19.03
2023-05-06T17:51:02.568Z,18.95
2023-05-06T17:53:29.931Z,18.89
2023-05-06T17:55:58.388Z,18.88
2023-05-06T17:58:25.695Z,18.83
2023-05-06T18:00:54.200Z,18.80
2023-05-06T18:03:23.929Z,18.74
2023-05-06T18:05:52.552Z,18.71
2023-05-06T18:08:21.399Z,18.66
2023-05-06T18:10:49.005Z,18.66
2023-05-06T18:13:16.966Z,18.66
2023-05-06T18:15:47.117Z,18.67
2023-05-06T18:18:15.978Z,18.60
2023-05-06T18:20:43.409Z,18.62
2023-05-06T18:23:12.048Z,18.74
2023-05-06T18:25:39.683Z,18.75
2023-05-06T18:28:07.452Z,18.82
2023-05-06T18:30:36.310Z,18.82
2023-05-06T18:33:08.244Z,18.85
2023-05-06T18:35:35.814Z,18.94
2023-05-06T18:38:03.222Z,18.92
2023-05-06T18:40:38.680Z,18.90
2023-05-06T18:43:08.641Z,18.90
2023-05-06T18:45:36.205Z,18.92
2023-05-06T18:48:04.274Z,18.91
2023-05-06T18:50:32.010Z,18.93
2023-05-06T18:52:59.267Z,18.98
2023-05-06T18:55:29.323Z,18.73
2023-05-06T18:57:57.424Z,18.66
2023-05-06T19:00:24.952Z,18.77
2023-05-06T19:02:52.354Z,18.93
2023-05-06T19:05:20.946Z,18.93
2023-05-06T19:07:52.573Z,19.00
2023-05-06T19:10:20.443Z,19.01
2023-05-06T19:12:48.002Z,19.07
2023-05-06T19:15:15.194Z,19.09
2023-05-06T19:17:42.701Z,19.14
2023-05-06T19:20:11.269Z,19.06
2023-05-06T19:22:38.815Z,19.04
2023-05-06T19:25:06.116Z,19.02
2023-05-06T19:27:33.809Z,18.98
2023-05-06T19:30:00.939Z,18.88
2023-05-06T19:32:31.537Z,18.75
2023-05-06T19:35:08.558Z,18.72
2023-05-06T19:37:38.398Z,18.67
2023-05-06T19:40:09.313Z,18.63
2023-05-06T19:42:36.859Z,18.57
2023-05-06T19:45:12.122Z,18.61
2023-05-06T19:47:43.781Z,18.62
2023-05-06T19:50:14.413Z,18.61
2023-05-06T19:52:43.333Z,18.58
2023-05-06T19:55:11.600Z,18.52
2023-05-06T19:57:43.262Z,18.40
2023-05-06T20:00:12.562Z,18.42
2023-05-06T20:02:40.804Z,18.50
2023-05-06T20:05:09.769Z,18.50
2023-05-06T20:07:38.901Z,18.50
2023-05-06T20:10:06.970Z,18.51
2023-05-06T20:12:36.862Z,18.45
2023-05-06T20:15:04.889Z,18.48
2023-05-06T20:17:33.096Z,18.47
2023-05-06T20:20:02.577Z,18.45
2023-05-06T20:22:32.030Z,18.43
2023-05-06T20:25:12.319Z,18.42
2023-05-06T20:27:41.013Z,18.41
2023-05-06T20:30:10.222Z,18.29
2023-05-06T20:32:38.857Z,18.07
2023-05-06T20:35:09.688Z,18.22
2023-05-06T20:37:39.427Z,18.14
2023-05-06T20:40:09.363Z,18.10
2023-05-06T20:42:37.169Z,18.07
2023-05-06T20:45:08.268Z,18.03
2023-05-06T20:47:36.993Z,17.99
2023-05-06T20:50:04.829Z,17.95
2023-05-06T20:52:33.364Z,17.93
2023-05-06T20:55:01.229Z,17.89
2023-05-06T20:57:28.978Z,17.86
2023-05-06T20:59:56.732Z,17.82
2023-05-06T21:02:24.205Z,17.77
2023-05-06T21:04:56.588Z,17.75
2023-05-06T21:07:26.495Z,17.73
2023-05-06T21:09:57.571Z,17.72
2023-05-06T21:12:25.092Z,17.67
2023-05-06T21:14:52.557Z,17.63
2023-05-06T21:17:20.213Z,17.60
2023-05-06T21:19:50.436Z,17.58
2023-05-06T21:22:17.774Z,17.57
2023-05-06T21:24:46.388Z,17.54
2023-05-06T21:27:15.500Z,17.52
2023-05-06T21:29:43.498Z,17.50
2023-05-06T21:32:11.010Z,17.48
2023-05-06T21:34:42.676Z,17.46
2023-05-06T21:37:10.120Z,17.43
2023-05-06T21:39:37.512Z,17.39
2023-05-06T21:42:05.217Z,17.39
2023-05-06T21:44:32.929Z,17.37
2023-05-06T21:47:00.486Z,17.35
2023-05-06T21:49:27.853Z,17.30
2023-05-06T21:51:55.062Z,17.30
2023-05-06T21:54:22.833Z,17.29
2023-05-06T21:56:50.416Z,17.25
2023-05-06T21:59:21.174Z,17.24
2023-05-06T22:01:48.993Z,17.21
2023-05-06T22:04:17.131Z,17.19
2023-05-06T22:06:44.572Z,17.18
2023-05-06T22:09:12.365Z,17.17
2023-05-06T22:11:39.367Z,17.13
2023-05-06T22:14:07.228Z,17.11
2023-05-06T22:16:38.474Z,17.10
2023-05-06T22:19:06.679Z,17.08
2023-05-06T22:21:36.985Z,17.04
2023-05-06T22:24:04.318Z,17.05
2023-05-06T22:26:33.427Z,17.01
2023-05-06T22:29:00.497Z,17.00
2023-05-06T22:31:27.877Z,16.98
2023-05-06T22:33:58.241Z,16.94
2023-05-06T22:36:29.537Z,16.95
2023-05-06T22:38:56.876Z,16.94
2023-05-06T22:41:23.963Z,16.91
2023-05-06T22:43:50.964Z,16.89
2023-05-06T22:46:18.135Z,16.89
2023-05-06T22:48:46.621Z,16.86
2023-05-06T22:51:18.398Z,16.86
2023-05-06T22:53:45.575Z,16.84
2023-05-06T22:56:12.695Z,16.81
2023-05-06T22:58:40.259Z,16.80
2023-05-06T23:01:07.928Z,16.78
2023-05-06T23:03:35.712Z,16.77
2023-05-06T23:06:04.282Z,16.75
2023-05-06T23:08:31.548Z,16.73
2023-05-06T23:10:58.576Z,16.73
2023-05-06T23:13:27.107Z,16.72
2023-05-06T23:15:54.207Z,16.71
2023-05-06T23:18:21.247Z,16.69
2023-05-06T23:20:48.503Z,16.70
2023-05-06T23:23:15.702Z,16.71
2023-05-06T23:25:42.662Z,16.68
2023-05-06T23:28:09.614Z,16.66
2023-05-06T23:30:36.610Z,16.64
2023-05-06T23:33:04.650Z,16.62
2023-05-06T23:35:32.733Z,16.63
2023-05-06T23:37:59.698Z,16.58
2023-05-06T23:40:26.683Z,16.60
2023-05-06T23:42:53.647Z,16.57
2023-05-06T23:45:20.735Z,16.56
2023-05-06T23:47:47.743Z,16.55
2023-05-06T23:50:14.867Z,16.52
2023-05-06T23:52:42.054Z,16.50
2023-05-06T23:55:09.802Z,16.48
2023-05-06T23:57:37.102Z,16.47
